createdAt,value
2022-07-26T00:00:50.914Z,21.10
2022-07-26T00:03:22.697Z,21.00
2022-07-26T00:05:50.004Z,21.00
2022-07-26T00:08:17.287Z,21.10
2022-07-26T00:10:49.424Z,21.00
2022-07-26T00:13:19.482Z,21.00
2022-07-26T00:15:48.305Z,21.00
2022-07-26T00:18:17.165Z,20.90
2022-07-26T00:20:44.554Z,20.90
2022-07-26T00:23:11.701Z,20.90
2022-07-26T00:25:38.968Z,20.80
2022-07-26T00:28:06.313Z,20.80
2022-07-26T00:30:34.638Z,20.70
2022-07-26T00:33:01.922Z,20.70
2022-07-26T00:35:29.391Z,20.60
2022-07-26T00:37:56.532Z,20.60
2022-07-26T00:40:23.798Z,20.50
2022-07-26T00:42:51.200Z,20.60
2022-07-26T00:45:18.966Z,20.60
2022-07-26T00:47:46.377Z,20.60
2022-07-26T00:50:16.874Z,20.60
2022-07-26T00:52:45.921Z,20.50
2022-07-26T00:55:14.487Z,20.50
2022-07-26T00:57:42.625Z,20.50
2022-07-26T01:00:13.052Z,20.50
2022-07-26T01:02:41.375Z,20.50
2022-07-26T01:05:09.177Z,20.40
2022-07-26T01:07:38.559Z,20.40
2022-07-26T01:10:10.881Z,20.40
2022-07-26T01:12:42.093Z,20.40
2022-07-26T01:15:11.109Z,20.40
2022-07-26T01:17:38.751Z,20.30
2022-07-26T01:20:08.522Z,20.30
2022-07-26T01:22:35.725Z,20.30
2022-07-26T01:25:03.494Z,20.30
2022-07-26T01:27:34.075Z,20.20
2022-07-26T01:30:01.676Z,20.20
2022-07-26T01:32:28.739Z,20.20
2022-07-26T01:34:56.102Z,20.30
2022-07-26T01:37:23.245Z,20.20
2022-07-26T01:39:50.470Z,20.20
2022-07-26T01:42:17.615Z,20.30
2022-07-26T01:44:44.749Z,20.30
2022-07-26T01:47:11.956Z,20.20
2022-07-26T01:49:39.290Z,20.20
2022-07-26T01:52:06.592Z,20.20
2022-07-26T01:54:33.770Z,20.20
2022-07-26T01:59:28.538Z,20.10
2022-07-26T02:01:55.837Z,20.00
2022-07-26T02:04:41.702Z,20.00
2022-07-26T02:07:12.932Z,19.90
2022-07-26T02:09:40.619Z,19.90
2022-07-26T02:12:08.525Z,19.90
2022-07-26T02:14:35.826Z,19.80
2022-07-26T02:17:03.508Z,19.80
2022-07-26T02:19:31.814Z,19.80
2022-07-26T02:21:59.635Z,19.80
2022-07-26T02:24:29.215Z,19.80
2022-07-26T02:26:57.247Z,19.70
2022-07-26T02:31:53.472Z,19.70
2022-07-26T02:34:21.021Z,19.70
2022-07-26T02:36:48.969Z,19.70
2022-07-26T02:41:43.919Z,19.60
2022-07-26T02:44:11.532Z,19.50
2022-07-26T02:46:39.381Z,19.50
2022-07-26T02:49:06.711Z,19.50
2022-07-26T02:51:34.002Z,19.40
2022-07-26T02:54:01.206Z,19.40
2022-07-26T02:56:28.724Z,19.40
2022-07-26T02:58:56.102Z,19.40
2022-07-26T03:01:23.429Z,19.40
2022-07-26T03:06:19.677Z,19.30
2022-07-26T03:08:48.329Z,19.30
2022-07-26T03:11:16.426Z,19.30
2022-07-26T03:13:43.694Z,19.40
2022-07-26T03:16:11.269Z,19.50
2022-07-26T03:18:39.117Z,19.40
2022-07-26T03:21:06.670Z,19.50
2022-07-26T03:23:35.160Z,19.50
2022-07-26T03:26:02.460Z,19.40
2022-07-26T03:28:31.927Z,19.40
2022-07-26T03:30:59.948Z,19.50
2022-07-26T03:33:27.211Z,19.50
2022-07-26T03:35:54.790Z,19.60
2022-07-26T03:38:22.367Z,19.60
2022-07-26T03:40:49.801Z,19.60
2022-07-26T03:43:21.214Z,19.70
2022-07-26T03:48:17.942Z,19.80
2022-07-26T03:50:45.284Z,19.80
2022-07-26T03:53:12.405Z,19.90
2022-07-26T03:55:57.995Z,19.90
2022-07-26T03:58:25.310Z,19.80
2022-07-26T04:00:52.482Z,19.80
2022-07-26T04:03:20.851Z,19.80
2022-07-26T04:05:49.059Z,19.90
2022-07-26T04:08:16.568Z,19.90
2022-07-26T04:10:52.909Z,20.00
2022-07-26T04:13:23.964Z,20.00
2022-07-26T04:15:51.526Z,20.10
2022-07-26T04:18:18.645Z,20.10
2022-07-26T04:20:46.016Z,20.10
2022-07-26T04:23:13.636Z,20.10
2022-07-26T04:25:41.876Z,20.20
2022-07-26T04:28:09.753Z,20.30
2022-07-26T04:30:37.584Z,20.30
2022-07-26T04:33:05.418Z,20.30
2022-07-26T04:35:32.924Z,20.30
2022-07-26T04:38:00.554Z,20.40
2022-07-26T04:40:29.386Z,20.40
2022-07-26T04:42:57.229Z,20.50
2022-07-26T04:45:24.408Z,20.50
2022-07-26T04:47:52.181Z,20.60
2022-07-26T04:50:21.639Z,20.60
2022-07-26T04:52:49.858Z,20.60
2022-07-26T04:55:17.947Z,20.60
2022-07-26T04:57:47.491Z,20.60
2022-07-26T05:00:21.715Z,20.70
2022-07-26T13:50:49.112Z,23.90
2022-07-26T13:53:16.958Z,23.80
2022-07-26T13:55:44.117Z,23.60
2022-07-26T13:58:11.443Z,23.30
2022-07-26T14:00:40.482Z,23.20
2022-07-26T14:03:08.069Z,23.20
2022-07-26T14:05:35.644Z,23.20
2022-07-26T14:08:03.031Z,23.20
2022-07-26T14:10:30.177Z,23.20
2022-07-26T14:12:57.931Z,23.20
2022-07-26T14:15:25.077Z,23.20
2022-07-26T14:17:52.907Z,23.20
2022-07-26T14:20:20.827Z,23.30
2022-07-26T14:22:48.392Z,23.40
2022-07-26T14:25:15.531Z,23.50
2022-07-26T14:27:42.657Z,23.50
2022-07-26T14:30:10.314Z,23.60
2022-07-26T14:32:37.617Z,23.70
2022-07-26T14:35:05.638Z,23.70
2022-07-26T14:37:42.728Z,23.70
2022-07-26T14:40:13.661Z,23.60
2022-07-26T14:42:40.872Z,23.50
2022-07-26T14:45:10.025Z,23.40
2022-07-26T14:47:38.159Z,23.40
2022-07-26T14:50:07.716Z,23.40
2022-07-26T14:52:41.025Z,23.40
2022-07-26T14:55:08.982Z,23.50
2022-07-26T14:57:39.551Z,23.60
2022-07-26T15:00:16.233Z,23.60
2022-07-26T15:02:46.008Z,23.50
2022-07-26T15:05:15.287Z,23.50
2022-07-26T15:07:43.193Z,23.50
2022-07-26T15:10:12.241Z,23.50
2022-07-26T15:12:40.938Z,23.60
2022-07-26T15:15:09.153Z,23.70
2022-07-26T15:17:36.770Z,23.70
2022-07-26T15:20:05.549Z,23.60
2022-07-26T15:22:32.732Z,23.50
2022-07-26T15:24:59.990Z,23.50
2022-07-26T15:27:27.191Z,23.50
2022-07-26T15:29:58.253Z,23.50
2022-07-26T15:32:29.985Z,23.50
2022-07-26T15:34:57.104Z,23.40
2022-07-26T15:37:24.948Z,23.40
2022-07-26T15:39:52.121Z,23.40
2022-07-26T15:42:20.877Z,23.40
2022-07-26T15:44:50.875Z,23.50
2022-07-26T15:47:43.418Z,23.30
2022-07-26T15:50:08.162Z,23.30
2022-07-26T15:52:41.818Z,23.10
2022-07-26T15:55:10.238Z,23.10
2022-07-26T15:57:37.980Z,23.10
2022-07-26T16:00:10.932Z,23.10
2022-07-26T16:02:40.609Z,23.10
2022-07-26T16:05:08.587Z,23.10
2022-07-26T16:07:35.894Z,23.10
2022-07-26T16:10:04.067Z,23.00
2022-07-26T16:12:31.315Z,23.00
2022-07-26T16:14:58.491Z,22.90
2022-07-26T16:17:25.815Z,22.70
2022-07-26T16:19:53.613Z,22.60
2022-07-26T16:22:20.898Z,22.60
2022-07-26T16:24:48.203Z,22.50
2022-07-26T16:27:15.369Z,22.50
2022-07-26T16:29:42.681Z,22.40
2022-07-26T16:32:11.015Z,22.30
2022-07-26T16:34:38.546Z,22.30
2022-07-26T16:37:05.949Z,22.20
2022-07-26T16:39:33.240Z,22.20
2022-07-26T16:42:06.886Z,22.10
2022-07-26T16:44:36.319Z,22.10
2022-07-26T16:47:04.377Z,21.90
2022-07-26T16:49:31.750Z,21.80
2022-07-26T16:51:59.128Z,21.60
2022-07-26T16:54:26.390Z,21.50
2022-07-26T16:56:53.740Z,21.40
2022-07-26T16:59:20.873Z,21.40
2022-07-26T17:01:48.208Z,21.40
2022-07-26T17:04:16.681Z,21.30
2022-07-26T17:07:01.575Z,21.40
2022-07-26T17:09:31.963Z,21.30
2022-07-26T17:12:04.267Z,21.30
2022-07-26T17:14:33.498Z,21.40
2022-07-26T17:17:00.671Z,21.40
2022-07-26T17:19:27.917Z,21.30
2022-07-26T17:21:55.302Z,21.20
2022-07-26T17:24:22.381Z,21.20
2022-07-26T17:26:49.658Z,21.20
2022-07-26T17:29:16.785Z,21.10
2022-07-26T17:31:44.071Z,21.10
2022-07-26T17:34:11.599Z,21.10
2022-07-26T17:36:38.830Z,21.00
2022-07-26T17:39:06.189Z,20.80
2022-07-26T17:41:35.314Z,20.80
2022-07-26T17:44:03.317Z,20.70
2022-07-26T17:46:34.035Z,20.60
2022-07-26T17:49:01.432Z,20.50
2022-07-26T17:51:28.680Z,20.60
2022-07-26T17:53:55.875Z,20.70
2022-07-26T17:56:23.174Z,20.60
2022-07-26T17:58:50.518Z,20.40
2022-07-26T18:01:17.903Z,20.40
2022-07-26T18:03:45.310Z,20.30
2022-07-26T18:06:12.804Z,20.30
2022-07-26T18:08:40.260Z,20.40
2022-07-26T18:11:09.958Z,20.30
2022-07-26T18:13:38.574Z,20.30
2022-07-26T18:16:06.817Z,20.20
2022-07-26T18:18:34.165Z,20.30
2022-07-26T18:21:01.364Z,20.20
2022-07-26T18:23:28.572Z,20.20
2022-07-26T18:25:58.117Z,20.20
2022-07-26T18:28:25.542Z,20.10
2022-07-26T18:30:52.874Z,20.20
2022-07-26T18:33:20.505Z,20.20
2022-07-26T18:35:47.790Z,20.30
2022-07-26T18:38:15.270Z,20.20
2022-07-26T18:40:42.506Z,20.20
2022-07-26T18:43:09.847Z,20.20
2022-07-26T18:45:37.102Z,20.20
2022-07-26T18:48:04.837Z,20.20
2022-07-26T18:50:32.307Z,20.10
2022-07-26T18:52:59.806Z,20.00
2022-07-26T18:55:27.371Z,19.90
2022-07-26T18:57:54.740Z,19.80
2022-07-26T19:00:24.158Z,19.80
2022-07-26T19:02:53.067Z,19.70
2022-07-26T19:05:22.806Z,19.60
2022-07-26T19:07:50.840Z,19.50
2022-07-26T19:10:20.242Z,19.50
2022-07-26T19:12:49.188Z,19.50
2022-07-26T19:15:16.855Z,19.40
2022-07-26T19:17:44.714Z,19.30
2022-07-26T19:20:12.721Z,19.40
2022-07-26T19:22:40.601Z,19.50
2022-07-26T19:25:10.674Z,19.50
2022-07-26T19:27:38.327Z,19.50
2022-07-26T19:30:07.672Z,19.50
2022-07-26T19:32:35.183Z,19.60
2022-07-26T19:35:02.908Z,19.50
2022-07-26T19:37:30.281Z,19.60
2022-07-26T19:40:00.532Z,19.50
2022-07-26T19:42:30.364Z,19.40
2022-07-26T19:44:58.045Z,19.40
2022-07-26T19:47:25.404Z,19.30
2022-07-26T19:49:52.721Z,19.30
2022-07-26T19:52:20.066Z,19.20
2022-07-26T19:54:47.395Z,19.20
2022-07-26T19:57:19.113Z,19.20
2022-07-26T19:59:46.965Z,19.20
2022-07-26T20:02:17.307Z,19.10
2022-07-26T20:04:46.229Z,19.00
2022-07-26T20:07:19.521Z,18.90
2022-07-26T20:09:51.452Z,19.00
2022-07-26T20:12:20.923Z,19.00
2022-07-26T20:14:48.362Z,18.90
2022-07-26T20:17:16.239Z,18.90
2022-07-26T20:19:43.802Z,18.90
2022-07-26T20:22:11.718Z,18.90
2022-07-26T20:24:39.899Z,18.90
2022-07-26T20:27:08.231Z,18.80
2022-07-26T20:29:36.016Z,18.70
2022-07-26T20:32:04.066Z,18.60
2022-07-26T20:34:31.530Z,18.70
2022-07-26T20:36:58.859Z,18.70
2022-07-26T20:39:28.199Z,18.80
2022-07-26T20:41:55.584Z,18.80
2022-07-26T20:44:28.245Z,18.80
2022-07-26T20:46:56.390Z,18.80
2022-07-26T20:49:23.917Z,18.70
2022-07-26T20:51:51.307Z,18.60
2022-07-26T20:54:19.547Z,18.60
2022-07-26T20:56:46.885Z,18.50
2022-07-26T20:59:14.699Z,18.60
2022-07-26T21:01:43.982Z,18.60
2022-07-26T21:04:12.345Z,18.60
2022-07-26T21:06:39.562Z,18.60
2022-07-26T21:09:08.943Z,18.60
2022-07-26T21:11:38.599Z,18.50
2022-07-26T21:14:05.709Z,18.50
2022-07-26T21:16:33.104Z,18.40
2022-07-26T21:19:01.834Z,18.40
2022-07-26T21:21:29.147Z,18.50
2022-07-26T21:23:56.312Z,18.40
2022-07-26T21:26:23.603Z,18.40
2022-07-26T21:28:50.858Z,18.40
2022-07-26T21:31:18.097Z,18.40
2022-07-26T21:33:45.601Z,18.40
2022-07-26T21:36:14.449Z,18.40
2022-07-26T21:38:42.237Z,18.40
2022-07-26T21:41:10.308Z,18.50
2022-07-26T21:43:42.274Z,18.40
2022-07-26T21:46:15.885Z,18.50
2022-07-26T21:48:43.211Z,18.50
2022-07-26T21:51:10.491Z,18.60
2022-07-26T21:53:37.791Z,18.60
2022-07-26T21:56:05.799Z,18.60
2022-07-26T21:58:36.564Z,18.50
2022-07-26T22:01:11.070Z,18.50
2022-07-26T22:03:40.120Z,18.50
2022-07-26T22:06:09.014Z,18.50
2022-07-26T22:08:36.602Z,18.50
2022-07-26T22:11:04.714Z,18.50
2022-07-26T22:13:32.122Z,18.50
2022-07-26T22:15:59.336Z,18.50
2022-07-26T22:18:26.930Z,18.50
2022-07-26T22:20:54.470Z,18.60
2022-07-26T22:23:23.219Z,18.50
2022-07-26T22:25:50.489Z,18.50
2022-07-26T22:28:18.287Z,18.50
2022-07-26T22:30:46.176Z,18.60
2022-07-26T22:33:13.406Z,18.60
2022-07-26T22:35:40.771Z,18.50
2022-07-26T22:38:10.611Z,18.50
2022-07-26T22:40:39.340Z,18.50
2022-07-26T22:43:08.002Z,18.60
2022-07-26T22:45:35.752Z,18.50
2022-07-26T22:48:04.422Z,18.50
2022-07-26T22:50:32.722Z,18.50
2022-07-26T22:53:01.224Z,18.40
2022-07-26T22:55:29.037Z,18.40
2022-07-26T22:57:56.439Z,18.30
2022-07-26T23:00:24.152Z,18.30
2022-07-26T23:02:51.438Z,18.30
2022-07-26T23:05:19.461Z,18.30
2022-07-26T23:07:48.078Z,18.30
2022-07-26T23:10:16.625Z,18.30
2022-07-26T23:12:44.166Z,18.30
2022-07-26T23:15:14.798Z,18.40
2022-07-26T23:17:42.240Z,18.30
2022-07-26T23:20:10.974Z,18.40
2022-07-26T23:22:38.882Z,18.30
2022-07-26T23:25:06.725Z,18.30
2022-07-26T23:27:33.932Z,18.30
2022-07-26T23:30:01.855Z,18.30
2022-07-26T23:32:28.997Z,18.30
2022-07-26T23:34:56.121Z,18.40
2022-07-26T23:37:23.383Z,18.40
2022-07-26T23:39:50.575Z,18.40
2022-07-26T23:42:17.750Z,18.40
2022-07-26T23:44:44.829Z,18.40
2022-07-26T23:47:12.017Z,18.40
2022-07-26T23:49:39.212Z,18.40
2022-07-26T23:52:06.460Z,18.40
2022-07-26T23:54:33.564Z,18.40
2022-07-26T23:57:00.778Z,18.40
2022-07-26T23:59:27.937Z,18.30
